sensor_id;sensor_type;location;lat;lon;timestamp;temperature;humidity
72128;DHT22;60000;51.030;7.024;2023-03-23T00:02:14;12.81;73.23
72128;DHT22;60000;51.030;7.024;2023-03-23T00:04:39;12.81;73.17
72128;DHT22;60000;51.030;7.024;2023-03-23T00:07:05;12.87;72.93
72128;DHT22;60000;51.030;7.024;2023-03-23T00:09:30;12.93;72.79
72128;DHT22;60000;51.030;7.024;2023-03-23T00:11:59;12.93;72.75
72128;DHT22;60000;51.030;7.024;2023-03-23T00:14:31;12.91;72.68
72128;DHT22;60000;51.030;7.024;2023-03-23T00:17:09;12.95;72.61
72128;DHT22;60000;51.030;7.024;2023-03-23T00:19:39;13.00;72.39
72128;DHT22;60000;51.030;7.024;2023-03-23T00:22:16;13.03;72.44
72128;DHT22;60000;51.030;7.024;2023-03-23T00:24:44;13.05;72.21
72128;DHT22;60000;51.030;7.024;2023-03-23T00:27:10;13.03;72.43
72128;DHT22;60000;51.030;7.024;2023-03-23T00:29:38;13.05;72.44
72128;DHT22;60000;51.030;7.024;2023-03-23T00:32:04;13.03;72.49
72128;DHT22;60000;51.030;7.024;2023-03-23T00:34:29;13.00;72.67
72128;DHT22;60000;51.030;7.024;2023-03-23T00:36:59;12.97;72.84
72128;DHT22;60000;51.030;7.024;2023-03-23T00:39:26;12.97;72.81
72128;DHT22;60000;51.030;7.024;2023-03-23T00:41:53;12.98;72.76
72128;DHT22;60000;51.030;7.024;2023-03-23T00:44:19;12.94;72.80
72128;DHT22;60000;51.030;7.024;2023-03-23T00:46:49;12.97;72.86
72128;DHT22;60000;51.030;7.024;2023-03-23T00:49:17;12.95;72.83
72128;DHT22;60000;51.030;7.024;2023-03-23T00:51:43;12.94;72.84
72128;DHT22;60000;51.030;7.024;2023-03-23T00:54:09;12.91;72.99
72128;DHT22;60000;51.030;7.024;2023-03-23T00:56:35;12.93;72.97
72128;DHT22;60000;51.030;7.024;2023-03-23T00:59:01;12.91;73.05
72128;DHT22;60000;51.030;7.024;2023-03-23T01:01:27;12.94;73.01
72128;DHT22;60000;51.030;7.024;2023-03-23T01:03:52;12.90;73.07
72128;DHT22;60000;51.030;7.024;2023-03-23T01:06:26;12.91;73.05
72128;DHT22;60000;51.030;7.024;2023-03-23T01:08:52;12.93;73.05
72128;DHT22;60000;51.030;7.024;2023-03-23T01:11:19;12.91;73.10
72128;DHT22;60000;51.030;7.024;2023-03-23T01:13:45;12.98;72.94
72128;DHT22;60000;51.030;7.024;2023-03-23T01:16:10;12.94;73.14
72128;DHT22;60000;51.030;7.024;2023-03-23T01:18:37;12.93;73.24
72128;DHT22;60000;51.030;7.024;2023-03-23T01:21:07;12.87;73.30
72128;DHT22;60000;51.030;7.024;2023-03-23T01:23:34;12.83;73.45
72128;DHT22;60000;51.030;7.024;2023-03-23T01:26:09;12.80;73.55
72128;DHT22;60000;51.030;7.024;2023-03-23T01:28:35;12.83;73.58
72128;DHT22;60000;51.030;7.024;2023-03-23T01:31:03;12.80;73.47
72128;DHT22;60000;51.030;7.024;2023-03-23T01:33:29;12.80;73.52
72128;DHT22;60000;51.030;7.024;2023-03-23T01:35:54;12.77;73.74
72128;DHT22;60000;51.030;7.024;2023-03-23T01:38:20;12.79;73.83
72128;DHT22;60000;51.030;7.024;2023-03-23T01:40:46;12.79;73.69
72128;DHT22;60000;51.030;7.024;2023-03-23T01:43:14;12.76;74.05
72128;DHT22;60000;51.030;7.024;2023-03-23T01:45:40;12.74;74.45
72128;DHT22;60000;51.030;7.024;2023-03-23T01:48:14;12.73;75.10
72128;DHT22;60000;51.030;7.024;2023-03-23T01:51:02;12.68;75.76
72128;DHT22;60000;51.030;7.024;2023-03-23T01:53:40;12.63;76.76
72128;DHT22;60000;51.030;7.024;2023-03-23T01:56:08;12.55;77.23
72128;DHT22;60000;51.030;7.024;2023-03-23T01:58:37;12.47;77.69
72128;DHT22;60000;51.030;7.024;2023-03-23T02:01:06;12.40;78.17
72128;DHT22;60000;51.030;7.024;2023-03-23T02:03:35;12.33;78.70
72128;DHT22;60000;51.030;7.024;2023-03-23T02:06:01;12.30;79.32
72128;DHT22;60000;51.030;7.024;2023-03-23T02:08:28;12.28;79.91
72128;DHT22;60000;51.030;7.024;2023-03-23T02:10:54;12.21;80.15
72128;DHT22;60000;51.030;7.024;2023-03-23T02:13:20;12.14;80.37
72128;DHT22;60000;51.030;7.024;2023-03-23T02:24:10;12.01;81.04
72128;DHT22;60000;51.030;7.024;2023-03-23T02:27:01;11.94;81.28
72128;DHT22;60000;51.030;7.024;2023-03-23T02:34:56;11.88;81.52
72128;DHT22;60000;51.030;7.024;2023-03-23T02:37:31;11.91;81.44
72128;DHT22;60000;51.030;7.024;2023-03-23T02:40:09;12.04;80.21
72128;DHT22;60000;51.030;7.024;2023-03-23T02:42:39;11.98;80.65
72128;DHT22;60000;51.030;7.024;2023-03-23T02:45:07;11.97;80.84
72128;DHT22;60000;51.030;7.024;2023-03-23T02:47:35;11.91;80.86
72128;DHT22;60000;51.030;7.024;2023-03-23T02:50:05;11.94;80.79
72128;DHT22;60000;51.030;7.024;2023-03-23T02:52:33;11.91;80.62
72128;DHT22;60000;51.030;7.024;2023-03-23T02:54:59;11.88;80.67
72128;DHT22;60000;51.030;7.024;2023-03-23T02:57:27;11.84;80.70
72128;DHT22;60000;51.030;7.024;2023-03-23T02:59:53;11.81;80.73
72128;DHT22;60000;51.030;7.024;2023-03-23T03:02:31;11.78;80.95
72128;DHT22;60000;51.030;7.024;2023-03-23T03:07:43;11.74;80.82
72128;DHT22;60000;51.030;7.024;2023-03-23T03:10:22;11.74;80.68
72128;DHT22;60000;51.030;7.024;2023-03-23T03:13:11;11.71;80.50
72128;DHT22;60000;51.030;7.024;2023-03-23T03:15:42;11.75;80.31
72128;DHT22;60000;51.030;7.024;2023-03-23T03:18:32;11.73;80.06
72128;DHT22;60000;51.030;7.024;2023-03-23T03:21:06;11.70;80.10
72128;DHT22;60000;51.030;7.024;2023-03-23T03:23:33;11.73;79.95
72128;DHT22;60000;51.030;7.024;2023-03-23T03:26:00;11.71;79.91
72128;DHT22;60000;51.030;7.024;2023-03-23T03:28:27;11.68;80.10
72128;DHT22;60000;51.030;7.024;2023-03-23T03:30:56;11.68;80.10
72128;DHT22;60000;51.030;7.024;2023-03-23T03:33:23;11.71;80.05
72128;DHT22;60000;51.030;7.024;2023-03-23T03:35:54;11.74;79.56
72128;DHT22;60000;51.030;7.024;2023-03-23T03:38:20;11.78;79.49
72128;DHT22;60000;51.030;7.024;2023-03-23T03:40:46;11.78;79.31
72128;DHT22;60000;51.030;7.024;2023-03-23T03:43:11;11.81;79.31
72128;DHT22;60000;51.030;7.024;2023-03-23T03:45:37;11.78;79.29
72128;DHT22;60000;51.030;7.024;2023-03-23T03:48:02;11.81;79.36
72128;DHT22;60000;51.030;7.024;2023-03-23T03:50:28;11.82;79.20
72128;DHT22;60000;51.030;7.024;2023-03-23T03:52:53;11.82;79.18
72128;DHT22;60000;51.030;7.024;2023-03-23T03:55:19;11.81;79.11
72128;DHT22;60000;51.030;7.024;2023-03-23T03:57:44;11.81;79.23
72128;DHT22;60000;51.030;7.024;2023-03-23T04:00:10;11.81;79.16
72128;DHT22;60000;51.030;7.024;2023-03-23T04:02:39;11.82;79.14
72128;DHT22;60000;51.030;7.024;2023-03-23T04:05:05;11.84;78.99
72128;DHT22;60000;51.030;7.024;2023-03-23T04:07:31;11.85;79.05
72128;DHT22;60000;51.030;7.024;2023-03-23T04:09:56;11.84;79.04
72128;DHT22;60000;51.030;7.024;2023-03-23T04:12:22;11.89;78.81
72128;DHT22;60000;51.030;7.024;2023-03-23T04:14:48;11.89;78.74
72128;DHT22;60000;51.030;7.024;2023-03-23T04:17:13;11.88;78.84
72128;DHT22;60000;51.030;7.024;2023-03-23T04:19:40;11.88;78.78
72128;DHT22;60000;51.030;7.024;2023-03-23T04:22:05;11.89;78.88
72128;DHT22;60000;51.030;7.024;2023-03-23T04:24:30;11.88;78.84
72128;DHT22;60000;51.030;7.024;2023-03-23T04:26:58;11.87;78.95
72128;DHT22;60000;51.030;7.024;2023-03-23T04:29:24;11.79;78.99
72128;DHT22;60000;51.030;7.024;2023-03-23T04:31:49;11.78;79.23
72128;DHT22;60000;51.030;7.024;2023-03-23T04:34:17;11.74;79.38
72128;DHT22;60000;51.030;7.024;2023-03-23T04:36:43;11.77;79.27
72128;DHT22;60000;51.030;7.024;2023-03-23T04:39:09;11.73;79.42
72128;DHT22;60000;51.030;7.024;2023-03-23T04:41:39;11.70;79.62
72128;DHT22;60000;51.030;7.024;2023-03-23T04:44:05;11.71;79.48
72128;DHT22;60000;51.030;7.024;2023-03-23T04:46:31;11.67;79.62
72128;DHT22;60000;51.030;7.024;2023-03-23T04:48:57;11.66;79.75
72128;DHT22;60000;51.030;7.024;2023-03-23T04:51:24;11.66;79.68
72128;DHT22;60000;51.030;7.024;2023-03-23T04:53:51;11.66;79.80
72128;DHT22;60000;51.030;7.024;2023-03-23T04:56:17;11.63;79.96
72128;DHT22;60000;51.030;7.024;2023-03-23T04:58:43;11.64;80.03
72128;DHT22;60000;51.030;7.024;2023-03-23T05:01:10;11.68;79.89
72128;DHT22;60000;51.030;7.024;2023-03-23T05:03:39;11.66;80.06
72128;DHT22;60000;51.030;7.024;2023-03-23T05:06:04;11.66;79.99
72128;DHT22;60000;51.030;7.024;2023-03-23T05:08:30;11.68;79.98
72128;DHT22;60000;51.030;7.024;2023-03-23T05:10:58;11.68;80.03
72128;DHT22;60000;51.030;7.024;2023-03-23T05:13:24;11.68;80.02
72128;DHT22;60000;51.030;7.024;2023-03-23T05:15:50;11.68;80.04
72128;DHT22;60000;51.030;7.024;2023-03-23T05:18:16;11.71;80.15
72128;DHT22;60000;51.030;7.024;2023-03-23T05:20:42;11.68;80.11
72128;DHT22;60000;51.030;7.024;2023-03-23T05:23:08;11.70;80.17
72128;DHT22;60000;51.030;7.024;2023-03-23T05:25:34;11.70;80.22
72128;DHT22;60000;51.030;7.024;2023-03-23T05:28:02;11.64;80.32
72128;DHT22;60000;51.030;7.024;2023-03-23T05:30:28;11.67;80.31
72128;DHT22;60000;51.030;7.024;2023-03-23T05:32:55;11.66;80.38
72128;DHT22;60000;51.030;7.024;2023-03-23T05:35:20;11.70;80.21
72128;DHT22;60000;51.030;7.024;2023-03-23T05:37:45;11.70;80.25
72128;DHT22;60000;51.030;7.024;2023-03-23T05:40:11;11.71;80.18
72128;DHT22;60000;51.030;7.024;2023-03-23T05:42:38;11.73;80.19
72128;DHT22;60000;51.030;7.024;2023-03-23T05:45:07;11.74;80.13
72128;DHT22;60000;51.030;7.024;2023-03-23T05:47:34;11.75;80.08
72128;DHT22;60000;51.030;7.024;2023-03-23T05:50:00;11.78;79.92
72128;DHT22;60000;51.030;7.024;2023-03-23T05:52:26;11.75;80.03
72128;DHT22;60000;51.030;7.024;2023-03-23T05:54:52;11.79;79.93
72128;DHT22;60000;51.030;7.024;2023-03-23T05:57:18;11.81;79.75
72128;DHT22;60000;51.030;7.024;2023-03-23T05:59:44;11.81;79.72
72128;DHT22;60000;51.030;7.024;2023-03-23T06:02:10;11.84;79.40
72128;DHT22;60000;51.030;7.024;2023-03-23T06:04:35;11.84;79.46
72128;DHT22;60000;51.030;7.024;2023-03-23T06:07:03;11.82;79.37
72128;DHT22;60000;51.030;7.024;2023-03-23T06:09:28;11.81;79.51
72128;DHT22;60000;51.030;7.024;2023-03-23T06:11:54;11.78;79.53
72128;DHT22;60000;51.030;7.024;2023-03-23T06:14:19;11.81;79.67
72128;DHT22;60000;51.030;7.024;2023-03-23T06:16:46;11.81;79.73
72128;DHT22;60000;51.030;7.024;2023-03-23T06:19:11;11.84;79.74
72128;DHT22;60000;51.030;7.024;2023-03-23T06:21:37;11.84;79.57
72128;DHT22;60000;51.030;7.024;2023-03-23T06:24:02;11.88;79.59
72128;DHT22;60000;51.030;7.024;2023-03-23T06:26:47;11.91;79.64
72128;DHT22;60000;51.030;7.024;2023-03-23T06:29:13;11.91;79.34
72128;DHT22;60000;51.030;7.024;2023-03-23T06:31:45;11.97;79.01
72128;DHT22;60000;51.030;7.024;2023-03-23T06:34:12;11.98;78.44
72128;DHT22;60000;51.030;7.024;2023-03-23T06:36:38;12.02;78.20
72128;DHT22;60000;51.030;7.024;2023-03-23T06:39:04;12.02;78.08
72128;DHT22;60000;51.030;7.024;2023-03-23T06:41:32;12.06;77.87
72128;DHT22;60000;51.030;7.024;2023-03-23T06:43:58;12.15;77.50
72128;DHT22;60000;51.030;7.024;2023-03-23T06:46:24;12.18;77.09
72128;DHT22;60000;51.030;7.024;2023-03-23T06:48:49;12.24;76.71
72128;DHT22;60000;51.030;7.024;2023-03-23T06:51:16;12.28;76.69
72128;DHT22;60000;51.030;7.024;2023-03-23T06:53:42;12.32;76.25
72128;DHT22;60000;51.030;7.024;2023-03-23T06:56:07;12.35;75.77
72128;DHT22;60000;51.030;7.024;2023-03-23T06:58:33;12.37;75.62
72128;DHT22;60000;51.030;7.024;2023-03-23T07:00:58;12.42;75.47
72128;DHT22;60000;51.030;7.024;2023-03-23T07:03:24;12.45;75.21
72128;DHT22;60000;51.030;7.024;2023-03-23T07:05:51;12.45;75.17
72128;DHT22;60000;51.030;7.024;2023-03-23T07:08:16;12.46;74.98
72128;DHT22;60000;51.030;7.024;2023-03-23T07:10:41;12.45;74.84
72128;DHT22;60000;51.030;7.024;2023-03-23T07:13:07;12.47;74.51
72128;DHT22;60000;51.030;7.024;2023-03-23T07:15:32;12.50;74.26
72128;DHT22;60000;51.030;7.024;2023-03-23T07:17:58;12.55;73.96
72128;DHT22;60000;51.030;7.024;2023-03-23T07:20:23;12.59;73.73
72128;DHT22;60000;51.030;7.024;2023-03-23T07:22:48;12.61;73.35
72128;DHT22;60000;51.030;7.024;2023-03-23T07:25:15;12.63;73.05
72128;DHT22;60000;51.030;7.024;2023-03-23T07:27:41;12.67;73.11
72128;DHT22;60000;51.030;7.024;2023-03-23T07:30:07;12.72;72.71
72128;DHT22;60000;51.030;7.024;2023-03-23T07:32:32;12.81;71.97
72128;DHT22;60000;51.030;7.024;2023-03-23T07:34:58;12.84;71.93
72128;DHT22;60000;51.030;7.024;2023-03-23T07:37:23;12.87;71.95
72128;DHT22;60000;51.030;7.024;2023-03-23T07:39:48;12.90;71.85
72128;DHT22;60000;51.030;7.024;2023-03-23T07:42:13;12.95;71.53
72128;DHT22;60000;51.030;7.024;2023-03-23T07:44:39;12.94;71.35
72128;DHT22;60000;51.030;7.024;2023-03-23T07:47:04;13.01;71.26
72128;DHT22;60000;51.030;7.024;2023-03-23T07:49:30;13.03;71.14
72128;DHT22;60000;51.030;7.024;2023-03-23T07:51:56;13.05;71.04
72128;DHT22;60000;51.030;7.024;2023-03-23T07:54:23;13.08;70.98
72128;DHT22;60000;51.030;7.024;2023-03-23T07:56:48;13.11;70.97
72128;DHT22;60000;51.030;7.024;2023-03-23T07:59:13;13.16;70.43
72128;DHT22;60000;51.030;7.024;2023-03-23T08:01:39;13.21;70.15
72128;DHT22;60000;51.030;7.024;2023-03-23T08:04:05;13.26;69.36
72128;DHT22;60000;51.030;7.024;2023-03-23T08:06:34;13.31;69.53
72128;DHT22;60000;51.030;7.024;2023-03-23T08:09:01;13.35;69.25
72128;DHT22;60000;51.030;7.024;2023-03-23T08:11:30;13.39;69.17
72128;DHT22;60000;51.030;7.024;2023-03-23T08:13:56;13.42;68.39
72128;DHT22;60000;51.030;7.024;2023-03-23T08:16:22;13.48;68.01
72128;DHT22;60000;51.030;7.024;2023-03-23T08:18:47;13.51;67.95
72128;DHT22;60000;51.030;7.024;2023-03-23T08:21:12;13.55;68.33
72128;DHT22;60000;51.030;7.024;2023-03-23T08:23:38;13.58;68.15
72128;DHT22;60000;51.030;7.024;2023-03-23T08:26:05;13.62;67.67
72128;DHT22;60000;51.030;7.024;2023-03-23T08:28:33;13.62;67.55
72128;DHT22;60000;51.030;7.024;2023-03-23T08:30:59;13.65;67.19
72128;DHT22;60000;51.030;7.024;2023-03-23T08:33:24;13.70;67.16
72128;DHT22;60000;51.030;7.024;2023-03-23T08:35:57;13.76;67.10
72128;DHT22;60000;51.030;7.024;2023-03-23T08:38:23;13.80;66.49
72128;DHT22;60000;51.030;7.024;2023-03-23T08:40:49;13.80;65.70
72128;DHT22;60000;51.030;7.024;2023-03-23T08:43:15;13.82;65.62
72128;DHT22;60000;51.030;7.024;2023-03-23T08:45:41;13.86;66.19
72128;DHT22;60000;51.030;7.024;2023-03-23T08:48:07;13.87;65.81
72128;DHT22;60000;51.030;7.024;2023-03-23T08:50:32;13.94;65.99
72128;DHT22;60000;51.030;7.024;2023-03-23T08:52:58;13.96;65.39
72128;DHT22;60000;51.030;7.024;2023-03-23T08:55:23;14.04;65.79
72128;DHT22;60000;51.030;7.024;2023-03-23T08:57:49;14.06;65.23
72128;DHT22;60000;51.030;7.024;2023-03-23T09:00:18;14.03;65.15
72128;DHT22;60000;51.030;7.024;2023-03-23T09:02:49;14.04;64.71
72128;DHT22;60000;51.030;7.024;2023-03-23T09:05:16;14.02;64.72
72128;DHT22;60000;51.030;7.024;2023-03-23T09:07:44;14.03;64.72
72128;DHT22;60000;51.030;7.024;2023-03-23T09:10:11;14.02;64.79
72128;DHT22;60000;51.030;7.024;2023-03-23T09:12:37;14.03;64.43
72128;DHT22;60000;51.030;7.024;2023-03-23T09:15:05;14.02;64.60
72128;DHT22;60000;51.030;7.024;2023-03-23T09:17:42;14.00;64.28
72128;DHT22;60000;51.030;7.024;2023-03-23T09:20:08;14.00;64.26
72128;DHT22;60000;51.030;7.024;2023-03-23T09:22:45;13.99;64.72
72128;DHT22;60000;51.030;7.024;2023-03-23T09:25:13;14.00;64.85
72128;DHT22;60000;51.030;7.024;2023-03-23T09:27:42;13.99;64.58
72128;DHT22;60000;51.030;7.024;2023-03-23T09:30:10;14.03;64.58
72128;DHT22;60000;51.030;7.024;2023-03-23T09:32:37;14.03;64.59
72128;DHT22;60000;51.030;7.024;2023-03-23T09:35:05;14.07;64.15
72128;DHT22;60000;51.030;7.024;2023-03-23T09:37:33;14.13;63.82
72128;DHT22;60000;51.030;7.024;2023-03-23T09:40:00;14.13;63.81
72128;DHT22;60000;51.030;7.024;2023-03-23T09:42:57;14.13;63.93
72128;DHT22;60000;51.030;7.024;2023-03-23T09:45:39;14.12;63.67
72128;DHT22;60000;51.030;7.024;2023-03-23T09:50:54;14.13;63.98
72128;DHT22;60000;51.030;7.024;2023-03-23T09:53:25;14.16;62.85
72128;DHT22;60000;51.030;7.024;2023-03-23T09:55:53;14.17;62.37
72128;DHT22;60000;51.030;7.024;2023-03-23T09:58:28;14.23;61.84
72128;DHT22;60000;51.030;7.024;2023-03-23T10:03:26;14.27;61.18
72128;DHT22;60000;51.030;7.024;2023-03-23T10:05:53;14.27;61.03
72128;DHT22;60000;51.030;7.024;2023-03-23T10:08:19;14.28;61.22
72128;DHT22;60000;51.030;7.024;2023-03-23T10:16:25;14.33;60.72
72128;DHT22;60000;51.030;7.024;2023-03-23T10:21:37;14.38;60.39
72128;DHT22;60000;51.030;7.024;2023-03-23T10:24:09;14.40;60.61
72128;DHT22;60000;51.030;7.024;2023-03-23T10:31:35;14.40;61.28
72128;DHT22;60000;51.030;7.024;2023-03-23T10:34:07;14.35;61.74
72128;DHT22;60000;51.030;7.024;2023-03-23T10:36:37;14.42;61.99
72128;DHT22;60000;51.030;7.024;2023-03-23T10:39:10;14.38;63.33
72128;DHT22;60000;51.030;7.024;2023-03-23T10:41:37;14.31;65.18
72128;DHT22;60000;51.030;7.024;2023-03-23T10:44:32;14.18;67.25
72128;DHT22;60000;51.030;7.024;2023-03-23T10:47:03;14.09;68.00
72128;DHT22;60000;51.030;7.024;2023-03-23T10:49:43;14.00;69.04
72128;DHT22;60000;51.030;7.024;2023-03-23T10:54:50;13.80;69.50
72128;DHT22;60000;51.030;7.024;2023-03-23T10:57:26;13.84;70.14
72128;DHT22;60000;51.030;7.024;2023-03-23T11:00:05;13.86;70.18
72128;DHT22;60000;51.030;7.024;2023-03-23T11:02:40;13.90;70.54
72128;DHT22;60000;51.030;7.024;2023-03-23T11:05:17;13.83;71.14
72128;DHT22;60000;51.030;7.024;2023-03-23T11:07:50;13.76;71.80
72128;DHT22;60000;51.030;7.024;2023-03-23T11:10:23;13.73;72.28
72128;DHT22;60000;51.030;7.024;2023-03-23T11:12:49;13.75;72.36
72128;DHT22;60000;51.030;7.024;2023-03-23T11:15:39;13.73;72.24
72128;DHT22;60000;51.030;7.024;2023-03-23T11:18:09;13.75;71.30
72128;DHT22;60000;51.030;7.024;2023-03-23T11:20:41;13.79;70.67
72128;DHT22;60000;51.030;7.024;2023-03-23T11:23:09;13.82;70.79
72128;DHT22;60000;51.030;7.024;2023-03-23T11:25:50;13.82;70.67
72128;DHT22;60000;51.030;7.024;2023-03-23T11:28:17;13.87;70.03
72128;DHT22;60000;51.030;7.024;2023-03-23T11:30:42;13.96;69.52
72128;DHT22;60000;51.030;7.024;2023-03-23T11:33:08;13.99;69.66
72128;DHT22;60000;51.030;7.024;2023-03-23T11:35:33;14.03;69.51
72128;DHT22;60000;51.030;7.024;2023-03-23T11:37:59;14.10;69.50
72128;DHT22;60000;51.030;7.024;2023-03-23T11:40:27;14.12;69.57
72128;DHT22;60000;51.030;7.024;2023-03-23T11:45:37;14.14;69.12
72128;DHT22;60000;51.030;7.024;2023-03-23T11:48:21;14.17;68.85
72128;DHT22;60000;51.030;7.024;2023-03-23T11:53:33;14.20;68.58
72128;DHT22;60000;51.030;7.024;2023-03-23T11:56:27;14.18;68.85
72128;DHT22;60000;51.030;7.024;2023-03-23T11:58:55;14.18;68.98
72128;DHT22;60000;51.030;7.024;2023-03-23T12:01:46;14.13;69.24
72128;DHT22;60000;51.030;7.024;2023-03-23T12:07:29;13.82;73.57
72128;DHT22;60000;51.030;7.024;2023-03-23T12:10:10;13.62;75.20
72128;DHT22;60000;51.030;7.024;2023-03-23T12:13:05;13.41;76.47
72128;DHT22;60000;51.030;7.024;2023-03-23T12:15:38;13.39;77.84
72128;DHT22;60000;51.030;7.024;2023-03-23T12:18:37;13.49;79.75
72128;DHT22;60000;51.030;7.024;2023-03-23T12:21:16;13.66;80.50
72128;DHT22;60000;51.030;7.024;2023-03-23T12:34:10;13.16;80.53
72128;DHT22;60000;51.030;7.024;2023-03-23T12:50:28;12.94;82.86
72128;DHT22;60000;51.030;7.024;2023-03-23T12:53:04;12.88;83.13
72128;DHT22;60000;51.030;7.024;2023-03-23T12:55:39;12.80;83.10
72128;DHT22;60000;51.030;7.024;2023-03-23T12:58:34;12.83;83.41
72128;DHT22;60000;51.030;7.024;2023-03-23T13:01:24;12.90;82.23
72128;DHT22;60000;51.030;7.024;2023-03-23T13:04:05;12.97;81.58
72128;DHT22;60000;51.030;7.024;2023-03-23T13:06:36;12.98;81.21
72128;DHT22;60000;51.030;7.024;2023-03-23T13:11:51;13.16;79.03
72128;DHT22;60000;51.030;7.024;2023-03-23T13:17:11;13.34;77.45
72128;DHT22;60000;51.030;7.024;2023-03-23T13:22:50;13.58;74.51
72128;DHT22;60000;51.030;7.024;2023-03-23T13:28:27;13.86;72.53
72128;DHT22;60000;51.030;7.024;2023-03-23T13:31:02;13.93;72.37
72128;DHT22;60000;51.030;7.024;2023-03-23T13:33:30;14.00;71.75
72128;DHT22;60000;51.030;7.024;2023-03-23T13:36:03;14.10;71.65
72128;DHT22;60000;51.030;7.024;2023-03-23T13:38:31;14.14;72.49
72128;DHT22;60000;51.030;7.024;2023-03-23T13:40:57;14.20;73.00
72128;DHT22;60000;51.030;7.024;2023-03-23T13:43:31;14.23;73.57
72128;DHT22;60000;51.030;7.024;2023-03-23T13:46:27;14.28;73.89
72128;DHT22;60000;51.030;7.024;2023-03-23T13:49:18;14.33;73.28
72128;DHT22;60000;51.030;7.024;2023-03-23T13:57:02;14.28;71.17
72128;DHT22;60000;51.030;7.024;2023-03-23T13:59:32;14.20;71.58
72128;DHT22;60000;51.030;7.024;2023-03-23T14:02:27;14.14;71.79
72128;DHT22;60000;51.030;7.024;2023-03-23T14:04:53;14.17;72.18
72128;DHT22;60000;51.030;7.024;2023-03-23T14:07:20;14.17;72.16
72128;DHT22;60000;51.030;7.024;2023-03-23T14:09:45;14.21;71.90
72128;DHT22;60000;51.030;7.024;2023-03-23T14:12:17;14.28;72.37
72128;DHT22;60000;51.030;7.024;2023-03-23T14:14:46;14.31;72.46
72128;DHT22;60000;51.030;7.024;2023-03-23T14:17:23;14.35;72.15
72128;DHT22;60000;51.030;7.024;2023-03-23T14:19:52;14.38;71.50
72128;DHT22;60000;51.030;7.024;2023-03-23T14:22:23;14.41;71.52
72128;DHT22;60000;51.030;7.024;2023-03-23T14:24:49;14.42;71.34
72128;DHT22;60000;51.030;7.024;2023-03-23T14:27:21;14.51;71.39
72128;DHT22;60000;51.030;7.024;2023-03-23T14:29:57;14.62;71.86
72128;DHT22;60000;51.030;7.024;2023-03-23T14:32:23;14.64;71.40
72128;DHT22;60000;51.030;7.024;2023-03-23T14:34:52;14.65;71.12
72128;DHT22;60000;51.030;7.024;2023-03-23T14:37:18;14.61;70.83
72128;DHT22;60000;51.030;7.024;2023-03-23T14:39:49;14.60;70.83
72128;DHT22;60000;51.030;7.024;2023-03-23T14:42:26;14.54;70.92
72128;DHT22;60000;51.030;7.024;2023-03-23T14:44:53;14.52;71.36
72128;DHT22;60000;51.030;7.024;2023-03-23T14:47:24;14.49;71.54
72128;DHT22;60000;51.030;7.024;2023-03-23T14:49:56;14.44;71.63
72128;DHT22;60000;51.030;7.024;2023-03-23T14:52:25;14.40;71.69
72128;DHT22;60000;51.030;7.024;2023-03-23T14:54:50;14.38;71.99
72128;DHT22;60000;51.030;7.024;2023-03-23T14:57:26;14.35;72.20
72128;DHT22;60000;51.030;7.024;2023-03-23T14:59:52;14.34;72.37
72128;DHT22;60000;51.030;7.024;2023-03-23T15:02:38;14.28;73.50
72128;DHT22;60000;51.030;7.024;2023-03-23T15:05:18;14.18;74.50
72128;DHT22;60000;51.030;7.024;2023-03-23T15:07:49;14.13;75.49
72128;DHT22;60000;51.030;7.024;2023-03-23T15:10:18;14.06;76.93
72128;DHT22;60000;51.030;7.024;2023-03-23T15:12:46;14.00;76.87
72128;DHT22;60000;51.030;7.024;2023-03-23T15:15:33;13.91;76.32
72128;DHT22;60000;51.030;7.024;2023-03-23T15:18:00;13.84;76.96
72128;DHT22;60000;51.030;7.024;2023-03-23T15:20:32;13.80;77.58
72128;DHT22;60000;51.030;7.024;2023-03-23T15:23:15;13.86;78.13
72128;DHT22;60000;51.030;7.024;2023-03-23T15:25:47;13.89;78.65
72128;DHT22;60000;51.030;7.024;2023-03-23T15:28:18;14.04;78.96
72128;DHT22;60000;51.030;7.024;2023-03-23T15:30:50;14.25;78.38
72128;DHT22;60000;51.030;7.024;2023-03-23T15:33:16;14.46;78.23
72128;DHT22;60000;51.030;7.024;2023-03-23T15:35:50;14.52;75.90
72128;DHT22;60000;51.030;7.024;2023-03-23T15:38:24;14.62;76.02
72128;DHT22;60000;51.030;7.024;2023-03-23T15:40:53;14.75;75.17
72128;DHT22;60000;51.030;7.024;2023-03-23T15:43:48;14.91;74.84
72128;DHT22;60000;51.030;7.024;2023-03-23T15:49:04;15.00;72.25
72128;DHT22;60000;51.030;7.024;2023-03-23T15:51:32;15.04;72.27
72128;DHT22;60000;51.030;7.024;2023-03-23T15:53:58;15.07;70.11
72128;DHT22;60000;51.030;7.024;2023-03-23T15:56:24;15.09;68.76
72128;DHT22;60000;51.030;7.024;2023-03-23T15:58:50;15.07;66.29
72128;DHT22;60000;51.030;7.024;2023-03-23T16:01:17;15.13;66.07
72128;DHT22;60000;51.030;7.024;2023-03-23T16:03:50;15.20;65.34
72128;DHT22;60000;51.030;7.024;2023-03-23T16:06:24;15.23;65.02
72128;DHT22;60000;51.030;7.024;2023-03-23T16:08:50;15.26;64.58
72128;DHT22;60000;51.030;7.024;2023-03-23T16:11:17;15.30;65.33
72128;DHT22;60000;51.030;7.024;2023-03-23T16:13:43;15.27;65.22
72128;DHT22;60000;51.030;7.024;2023-03-23T16:16:18;15.29;64.36
72128;DHT22;60000;51.030;7.024;2023-03-23T16:18:45;15.27;64.30
72128;DHT22;60000;51.030;7.024;2023-03-23T16:21:10;15.20;63.96
72128;DHT22;60000;51.030;7.024;2023-03-23T16:23:35;15.14;64.15
72128;DHT22;60000;51.030;7.024;2023-03-23T16:26:01;15.13;64.30
72128;DHT22;60000;51.030;7.024;2023-03-23T16:28:26;15.07;64.62
72128;DHT22;60000;51.030;7.024;2023-03-23T16:30:52;14.99;64.60
72128;DHT22;60000;51.030;7.024;2023-03-23T16:33:17;14.98;64.58
72128;DHT22;60000;51.030;7.024;2023-03-23T16:35:43;14.92;64.88
72128;DHT22;60000;51.030;7.024;2023-03-23T16:38:15;14.89;64.24
72128;DHT22;60000;51.030;7.024;2023-03-23T16:40:42;14.85;64.52
72128;DHT22;60000;51.030;7.024;2023-03-23T16:43:08;14.85;63.68
72128;DHT22;60000;51.030;7.024;2023-03-23T16:45:33;14.81;63.69
72128;DHT22;60000;51.030;7.024;2023-03-23T16:47:59;14.78;63.52
72128;DHT22;60000;51.030;7.024;2023-03-23T16:50:27;14.73;63.63
72128;DHT22;60000;51.030;7.024;2023-03-23T16:52:53;14.71;63.87
72128;DHT22;60000;51.030;7.024;2023-03-23T16:55:18;14.71;63.49
72128;DHT22;60000;51.030;7.024;2023-03-23T16:57:43;14.68;63.71
72128;DHT22;60000;51.030;7.024;2023-03-23T17:00:14;14.64;63.76
72128;DHT22;60000;51.030;7.024;2023-03-23T17:02:44;14.65;63.74
72128;DHT22;60000;51.030;7.024;2023-03-23T17:05:11;14.62;63.65
72128;DHT22;60000;51.030;7.024;2023-03-23T17:07:40;14.61;63.73
72128;DHT22;60000;51.030;7.024;2023-03-23T17:10:07;14.62;63.44
72128;DHT22;60000;51.030;7.024;2023-03-23T17:12:34;14.60;63.77
72128;DHT22;60000;51.030;7.024;2023-03-23T17:14:59;14.60;64.02